Terminal Aerodrome Forecast
Issued by NWS

Home | Current Version | Previous Version | Text Only | Print | Product List | Glossary On
Versions: 1 2 3 4 5 6 7 8 9 10 11 12 13 14 15 16
024
FTUS46 KPDT 300044 AAA
TAFYKM
TAF AMD
KYKM 300044Z 3001/3024 15008G15KT P6SM FEW080
     FM300900 30006KT P6SM SCT100 SCT250
     FM301400 27006KT P6SM BKN200
     FM302000 16006KT P6SM SCT160 BKN200=

USA.gov is the U.S. government's official web portal to all federal, state and local government web resources and services.